LPMA/FNC METAR and TAF weather

Enter ICAO airport designator
Station Type Date Time Source
LPMA METAR 2022/11/30 11:00 UTC NOAA

LPMA 301100Z 05009KT 020V080 9999 FEW016 19/09 Q1021


Station Type Date Time Source
LPMA Decoded METAR 2022/11/30 11:00 UTC NOAA

Aeroporto Da Madeira, Portugal (LPMA) 32-41-52N 016-46-28W
Nov 30, 2022 - 06:00 AM EST / 2022.11.30 1100 UTC
Wind: from the NE (050 degrees) at 10 MPH (9 KT) (direction variable):0
Visibility: greater than 7 mile(s):0
Sky conditions: mostly clear
Temperature: 66 F (19 C)
Dew Point: 48 F (9 C)
Relative Humidity: 52%
Pressure (altimeter): 30.15 in. Hg (1021 hPa)
ob: LPMA 301100Z 05009KT 020V080 9999 FEW016 19/09 Q1021
cycle: 11

Station Type Date Time Source
LPMA TAF 2022/11/30 06:18 UTC NOAA

TAF LPMA 300500Z 3006/0106 34008KT 9999 SCT015
BECMG 3007/3009 03008KT
BECMG 3013/3015 22008KT
BECMG 3019/3021 SCT015 BKN030 PROB30
TEMPO 3023/0104 6000 -RA SCT006 BKN012
BECMG 0101/0103 35008KT

Example: see airport list